Camp Meeker, CA (95419)

6:46 PM PDT on April 27, 2015 (GMT -0700)
Occidental Western Hills | | Change Station
CLOSE
Current Station
Personal Weather Station
Location: Occidental, CA
Elevation: 1348 ft
Nearby Weather Stations

Elev 1348 ft 38.42 °N, 122.98 °W | Updated 11 seconds ago

Partly Cloudy
Partly Cloudy
66.4 °F
Feels Like 66.4 °F
N
5.6
Wind Variable Wind from South
Gusts 7.4 mph

Today
High -- | Low -- °F
--% Chance of Precip.
Yesterday
High -- | Low -- °F
Precip. -- in
6:19 AM 7:59 PM
Waxing Gibbous, 69% visible
Pressure 29.89 in
Visibility 10.0 miles
Clouds Scattered Clouds 20000 ft
Dew Point 20 °F
Humidity 17%
Rainfall 0.00 in
Snow Depth Not available.
UV 2 out of 12
Pollen 8.00 out of 12
Air Quality Not available.
Flu Activity Sporadic
METAR KSTS 280053Z 15012KT 10SM SCT200 23/12 A2991 RMK AO2 SLP122 T02280122

More Conditions Fewer Conditions

Pressure 29.89 in
Visibility 10.0 miles
Clouds Scattered Clouds 20000 ft
Dew Point 20 °F
Humidity 17%
Rainfall 0.00 in
Snow Depth Not available.
UV 2 out of 12
Pollen 8.00 out of 12
Air Quality Not available.
Flu Activity Sporadic
METAR KSTS 280053Z 15012KT 10SM SCT200 23/12 A2991 RMK AO2 SLP122 T02280122

More Conditions Fewer Conditions

10-Day Weather Forecast

Almanac

Astronomy

Apr. 27, 2015 Rise Set
Actual Time
Civil Twilight
Nautical Twilight
Astronomical Twilight
Moon
Length of Visible Light
Length of Day
Tomorrow will be .
, % of the Moon is Illuminated

Today's Extremes

State Highs State Lows

Community

WunderPhotos

Upload Photos

1,817,508 photos uploaded!

WunderBlogs® & News

Nearby

Air Quality

  Air Quality AQ Index Pollutant
Not available.

Snow Depth

Station Depth Elevation

Earthquake Activity

City Distance Mag. Time & Date
Minimum magnitude displayed is 2.5.

Coastal Water Temperatures

Place Temperature

Stations

Nearby Weather Stations

Station Location Temp. Windchill Dew Point Humidity Wind Precip. Elev Updated Type